Time;durP1;ratioP1;P1;durP2;ratioP2;P2;SDS_P1;SDS_P2;PMS_P1;PMS_P2;Temp;Humidity;BMP_temperature;BMP_pressure;BME280_temperature;BME280_humidity;BME280_pressure;Samples;Min_cycle;Max_cycle;Signal;HPM_P1;HPM_P2
2022/11/25 00:00:08;;;;;;;13.85;8.70;;;;;;;;;;5069981;28;20068;-73
2022/11/25 00:02:41;;;;;;;8.38;7.35;;;;;;;;;;5053183;28;20655;-73
2022/11/25 00:05:07;;;;;;;6.53;5.90;;;;;;;;;;5036533;28;20035;-74
2022/11/25 00:07:37;;;;;;;12.63;7.95;;;;;;;;;;5070125;28;20058;-74
2022/11/25 00:10:10;;;;;;;5.85;4.50;;;;;;;;;;5021981;28;20032;-74
2022/11/25 00:12:36;;;;;;;5.63;5.15;;;;;;;;;;5020352;28;20059;-74
2022/11/25 00:15:02;;;;;;;6.95;5.50;;;;;;;;;;5020323;28;20435;-74
2022/11/25 00:17:30;;;;;;;9.27;6.97;;;;;;;;;;5036876;28;20037;-74
2022/11/25 00:20:23;;;;;;;10.80;6.57;;;;;;;;;;5037604;28;20048;-74
2022/11/25 00:22:53;;;;;;;6.25;5.05;;;;;;;;;;5052924;28;20032;-73
2022/11/25 00:25:19;;;;;;;6.55;5.88;;;;;;;;;;5035636;28;20028;-73
2022/11/25 00:27:52;;;;;;;8.48;6.53;;;;;;;;;;5019677;28;20079;-74
2022/11/25 00:30:18;;;;;;;8.32;6.30;;;;;;;;;;5036741;28;20442;-73
2022/11/25 00:32:45;;;;;;;10.88;7.05;;;;;;;;;;5019845;28;20124;-74
2022/11/25 00:35:14;;;;;;;6.00;5.15;;;;;;;;;;5035615;28;20025;-74
2022/11/25 00:37:40;;;;;;;7.32;5.28;;;;;;;;;;5035753;28;20040;-74
2022/11/25 00:40:07;;;;;;;9.25;8.30;;;;;;;;;;5053804;28;20059;-73
2022/11/25 00:45:22;;;;;;;10.85;8.50;;;;;;;;;;5059066;28;20043;-74
2022/11/25 00:47:54;;;;;;;9.55;6.15;;;;;;;;;;5055750;28;20028;-75
2022/11/25 00:50:21;;;;;;;10.27;9.18;;;;;;;;;;5048311;28;20112;-76
2022/11/25 00:52:47;;;;;;;14.43;5.18;;;;;;;;;;5038903;28;20032;-73
2022/11/25 00:55:13;;;;;;;4.97;4.55;;;;;;;;;;5039076;28;20028;-73
2022/11/25 00:57:40;;;;;;;6.38;3.92;;;;;;;;;;5022590;28;20519;-73
2022/11/25 01:00:06;;;;;;;5.03;4.60;;;;;;;;;;5022229;28;20044;-73
2022/11/25 01:02:33;;;;;;;5.75;4.88;;;;;;;;;;5022587;28;20063;-74
2022/11/25 01:04:59;;;;;;;6.30;5.30;;;;;;;;;;5038564;28;20043;-74
2022/11/25 01:07:25;;;;;;;6.50;5.30;;;;;;;;;;5038773;28;20039;-73
2022/11/25 01:09:54;;;;;;;3.55;3.08;;;;;;;;;;5023283;28;20044;-74
2022/11/25 01:12:23;;;;;;;7.88;5.85;;;;;;;;;;5022948;28;20054;-74
2022/11/25 01:14:50;;;;;;;5.75;5.18;;;;;;;;;;5023361;28;20408;-74
2022/11/25 01:17:17;;;;;;;5.97;5.10;;;;;;;;;;5090448;28;20036;-74
2022/11/25 01:19:49;;;;;;;6.43;5.43;;;;;;;;;;5025321;28;20142;-74
2022/11/25 01:22:19;;;;;;;7.68;5.85;;;;;;;;;;5054333;28;20024;-74
2022/11/25 01:25:12;;;;;;;6.78;5.63;;;;;;;;;;5062207;28;20040;-74
2022/11/25 01:27:41;;;;;;;8.15;5.75;;;;;;;;;;5036153;28;20032;-74
2022/11/25 01:30:08;;;;;;;6.25;4.47;;;;;;;;;;5040882;28;20032;-74
2022/11/25 01:32:35;;;;;;;4.93;4.50;;;;;;;;;;5038589;28;20131;-74
2022/11/25 01:35:01;;;;;;;5.60;4.70;;;;;;;;;;5021840;28;20032;-74
2022/11/25 01:38:20;;;;;;;2.80;2.60;;;;;;;;;;5041605;28;20047;-73
2022/11/25 01:40:46;;;;;;;;;;;;;;;;;;5056462;28;20097;-74
2022/11/25 01:43:13;;;;;;;4.80;4.00;;;;;;;;;;5073056;28;19951;-74
2022/11/25 01:45:39;;;;;;;7.57;5.97;;;;;;;;;;5042761;28;20504;-74
2022/11/25 01:48:19;;;;;;;7.60;6.80;;;;;;;;;;5044362;28;20042;-74
2022/11/25 01:50:49;;;;;;;9.60;7.22;;;;;;;;;;5041821;28;20032;-73
2022/11/25 01:53:21;;;;;;;6.82;5.85;;;;;;;;;;5041174;28;20392;-74
2022/11/25 01:55:53;;;;;;;19.67;12.57;;;;;;;;;;5040745;28;20032;-74
2022/11/25 01:58:25;;;;;;;13.70;8.57;;;;;;;;;;5038863;28;20068;-74
2022/11/25 02:00:58;;;;;;;;;;;;;;;;;;5054384;28;20047;-73
2022/11/25 02:03:37;;;;;;;6.28;4.82;;;;;;;;;;5037144;28;19920;-73
2022/11/25 02:06:06;;;;;;;;;;;;;;;;;;5036769;28;20028;-73
2022/11/25 02:08:33;;;;;;;9.23;6.20;;;;;;;;;;5036578;28;20011;-73
2022/11/25 02:11:00;;;;;;;12.15;9.95;;;;;;;;;;5021229;28;20040;-74
2022/11/25 02:13:26;;;;;;;8.43;6.07;;;;;;;;;;5019423;28;20493;-75
2022/11/25 02:15:52;;;;;;;6.82;4.80;;;;;;;;;;5020468;28;20043;-75
2022/11/25 02:18:23;;;;;;;;;;;;;;;;;;5021574;28;20035;-74
2022/11/25 02:20:50;;;;;;;8.35;7.53;;;;;;;;;;5037648;28;20006;-75
2022/11/25 02:23:24;;;;;;;9.68;8.77;;;;;;;;;;5036828;28;20040;-75
2022/11/25 02:25:51;;;;;;;10.07;8.65;;;;;;;;;;5035923;28;20044;-74
2022/11/25 02:28:24;;;;;;;6.35;4.90;;;;;;;;;;5036577;28;20043;-75
2022/11/25 02:30:50;;;;;;;5.65;5.15;;;;;;;;;;5035316;28;20071;-75
2022/11/25 02:33:43;;;;;;;7.68;4.57;;;;;;;;;;5068860;28;20059;-75
2022/11/25 02:36:11;;;;;;;6.85;6.25;;;;;;;;;;5035090;28;20033;-75
2022/11/25 02:38:40;;;;;;;4.93;4.53;;;;;;;;;;5033669;28;20126;-74
2022/11/25 02:41:13;;;;;;;5.50;4.95;;;;;;;;;;5034943;28;20062;-74
2022/11/25 02:43:51;;;;;;;9.63;8.35;;;;;;;;;;5018459;28;20040;-74
2022/11/25 02:46:20;;;;;;;12.63;6.82;;;;;;;;;;5038410;28;20131;-74
2022/11/25 02:48:47;;;;;;;8.93;6.90;;;;;;;;;;5034549;28;20044;-74
2022/11/25 02:51:51;;;;;;;3.55;3.13;;;;;;;;;;5037987;28;20482;-74
2022/11/25 02:54:44;;;;;;;5.57;5.00;;;;;;;;;;5037062;28;20032;-74
2022/11/25 02:57:10;;;;;;;4.72;4.32;;;;;;;;;;5038147;28;20047;-75
2022/11/25 02:59:37;;;;;;;8.10;5.57;;;;;;;;;;5039833;28;20040;-74
2022/11/25 03:02:04;;;;;;;8.40;7.13;;;;;;;;;;5024392;28;20126;-73
2022/11/25 03:04:31;;;;;;;4.50;4.18;;;;;;;;;;5034999;28;20036;-73
2022/11/25 03:06:57;;;;;;;4.30;3.60;;;;;;;;;;5017941;28;20032;-73
2022/11/25 03:09:24;;;;;;;10.63;6.80;;;;;;;;;;5029952;28;20068;-73
2022/11/25 03:14:35;;;;;;;6.32;5.70;;;;;;;;;;5039329;28;20036;-73
2022/11/25 03:17:03;;;;;;;5.72;5.03;;;;;;;;;;5012435;28;20036;-73
2022/11/25 03:19:34;;;;;;;8.43;5.90;;;;;;;;;;5048452;28;20044;-73
2022/11/25 03:22:03;;;;;;;10.70;9.60;;;;;;;;;;5051467;28;20040;-73
2022/11/25 03:24:31;;;;;;;9.35;7.80;;;;;;;;;;5020499;28;20032;-74
2022/11/25 03:26:57;;;;;;;5.70;5.05;;;;;;;;;;5020647;28;20032;-74
2022/11/25 03:29:26;;;;;;;7.82;6.18;;;;;;;;;;5020460;28;20044;-74
2022/11/25 03:31:56;;;;;;;5.35;4.85;;;;;;;;;;5020312;28;20059;-73
2022/11/25 03:34:24;;;;;;;5.22;4.72;;;;;;;;;;5005289;28;20090;-75
2022/11/25 03:36:56;;;;;;;4.53;4.13;;;;;;;;;;5041456;28;20028;-75
2022/11/25 03:39:26;;;;;;;8.85;5.57;;;;;;;;;;5024582;28;20508;-75
2022/11/25 03:41:56;;;;;;;4.93;4.47;;;;;;;;;;5025214;28;20126;-75
2022/11/25 03:44:29;;;;;;;8.95;7.32;;;;;;;;;;5025169;28;20055;-76
2022/11/25 03:46:55;;;;;;;4.60;4.05;;;;;;;;;;5040456;28;20035;-76
2022/11/25 03:49:21;;;;;;;6.00;5.25;;;;;;;;;;5040212;28;20131;-75
2022/11/25 03:51:51;;;;;;;8.48;6.70;;;;;;;;;;5025104;28;20043;-76
2022/11/25 03:54:20;;;;;;;5.15;4.68;;;;;;;;;;5024551;28;20030;-76
2022/11/25 03:57:06;;;;;;;8.07;5.22;;;;;;;;;;5035516;28;20083;-75
2022/11/25 03:59:36;;;;;;;10.35;7.35;;;;;;;;;;5024771;28;20120;-75
2022/11/25 04:02:02;;;;;;;6.82;5.50;;;;;;;;;;5024056;28;20032;-76
2022/11/25 04:04:29;;;;;;;5.18;4.30;;;;;;;;;;5024642;28;20035;-76
2022/11/25 04:06:56;;;;;;;6.40;5.25;;;;;;;;;;5040373;28;20055;-75
2022/11/25 04:09:22;;;;;;;7.10;5.25;;;;;;;;;;5039842;28;20073;-76
2022/11/25 04:14:44;;;;;;;6.85;5.68;;;;;;;;;;5050323;28;20032;-76
2022/11/25 04:17:11;;;;;;;9.60;5.57;;;;;;;;;;5024897;28;20062;-76
2022/11/25 04:19:38;;;;;;;8.93;5.90;;;;;;;;;;5025894;28;20515;-76
2022/11/25 04:22:04;;;;;;;8.82;6.70;;;;;;;;;;5057684;28;20036;-74
2022/11/25 04:24:35;;;;;;;6.18;5.60;;;;;;;;;;5027471;28;20032;-75
2022/11/25 04:27:03;;;;;;;9.88;7.07;;;;;;;;;;5026295;28;20090;-75
2022/11/25 04:29:30;;;;;;;9.80;7.38;;;;;;;;;;5043169;28;20033;-75
2022/11/25 04:31:59;;;;;;;9.77;7.90;;;;;;;;;;5045246;28;20039;-77
2022/11/25 04:34:31;;;;;;;9.68;5.45;;;;;;;;;;5028037;28;20059;-77
2022/11/25 04:36:58;;;;;;;9.88;8.00;;;;;;;;;;5011169;28;20060;-76
2022/11/25 04:39:27;;;;;;;6.68;5.18;;;;;;;;;;5012368;28;20057;-77
2022/11/25 04:44:43;;;;;;;6.80;4.55;;;;;;;;;;5029896;28;20040;-76
2022/11/25 04:47:09;;;;;;;11.95;7.50;;;;;;;;;;5012789;28;20613;-77
2022/11/25 04:49:36;;;;;;;12.05;7.70;;;;;;;;;;5062487;28;20040;-77
2022/11/25 04:52:02;;;;;;;4.10;3.80;;;;;;;;;;5014045;28;20105;-76
2022/11/25 04:54:31;;;;;;;14.52;11.00;;;;;;;;;;5024055;28;20064;-77
2022/11/25 04:57:01;;;;;;;11.70;7.65;;;;;;;;;;5030580;28;20035;-76
2022/11/25 04:59:39;;;;;;;8.23;7.20;;;;;;;;;;5013830;28;20159;-78
2022/11/25 05:02:06;;;;;;;7.55;5.65;;;;;;;;;;5032011;28;20028;-76
2022/11/25 05:04:38;;;;;;;12.13;7.53;;;;;;;;;;5015797;28;20051;-75
2022/11/25 05:07:05;;;;;;;5.82;5.22;;;;;;;;;;5030735;28;20112;-78
2022/11/25 05:09:33;;;;;;;10.38;7.60;;;;;;;;;;5029837;28;20047;-77
2022/11/25 05:12:11;;;;;;;12.43;8.75;;;;;;;;;;5033580;28;20648;-77
2022/11/25 05:14:38;;;;;;;7.72;5.75;;;;;;;;;;5043137;28;20043;-78
2022/11/25 05:17:12;;;;;;;12.35;7.93;;;;;;;;;;5032395;28;20032;-77
2022/11/25 05:19:40;;;;;;;7.15;5.18;;;;;;;;;;5030530;28;20051;-80
2022/11/25 05:22:10;;;;;;;5.38;4.88;;;;;;;;;;5029302;28;20068;-81
2022/11/25 05:24:37;;;;;;;6.75;5.07;;;;;;;;;;5046355;28;20035;-81
2022/11/25 05:27:15;;;;;;;10.77;8.93;;;;;;;;;;5050023;28;20073;-80
2022/11/25 05:29:44;;;;;;;10.75;8.38;;;;;;;;;;5022790;28;20031;-78
2022/11/25 05:32:11;;;;;;;10.45;7.72;;;;;;;;;;5013428;28;20139;-79
2022/11/25 05:34:38;;;;;;;8.32;5.95;;;;;;;;;;5049445;28;20043;-79
2022/11/25 05:37:06;;;;;;;6.63;5.68;;;;;;;;;;5034930;28;20036;-82
2022/11/25 05:39:34;;;;;;;15.55;9.02;;;;;;;;;;5049703;28;20056;-82
2022/11/25 05:42:20;;;;;;;9.02;7.50;;;;;;;;;;5034288;28;20033;-80
2022/11/25 05:45:11;;;;;;;10.18;6.45;;;;;;;;;;5044506;28;20052;-84
2022/11/25 05:47:41;;;;;;;3.63;3.28;;;;;;;;;;5023676;28;20100;-81
2022/11/25 05:50:08;;;;;;;13.48;7.35;;;;;;;;;;5021527;28;20467;-83
2022/11/25 05:52:43;;;;;;;19.40;11.13;;;;;;;;;;5039709;28;20468;-79
2022/11/25 05:55:19;;;;;;;7.00;6.10;;;;;;;;;;5008365;28;20040;-81
2022/11/25 05:57:50;;;;;;;7.45;6.18;;;;;;;;;;5023186;28;20056;-80
2022/11/25 06:00:17;;;;;;;8.68;6.18;;;;;;;;;;5007596;28;20420;-79
2022/11/25 06:03:10;;;;;;;9.07;6.25;;;;;;;;;;5036032;28;20036;-79
2022/11/25 06:05:46;;;;;;;16.40;7.70;;;;;;;;;;5014844;28;20053;-79
2022/11/25 06:08:15;;;;;;;17.08;9.50;;;;;;;;;;5015202;28;20026;-78
2022/11/25 06:10:41;;;;;;;12.82;9.10;;;;;;;;;;5011972;28;20033;-80
2022/11/25 06:13:08;;;;;;;13.27;6.75;;;;;;;;;;5031419;28;20067;-82
2022/11/25 06:15:39;;;;;;;8.35;7.47;;;;;;;;;;5030947;28;20556;-80
2022/11/25 06:18:09;;;;;;;6.43;4.80;;;;;;;;;;5043736;28;20513;-81
2022/11/25 06:20:37;;;;;;;11.27;7.28;;;;;;;;;;5013055;28;20127;-80
2022/11/25 06:23:02;;;;;;;12.70;7.50;;;;;;;;;;5028436;28;20029;-80
2022/11/25 06:25:32;;;;;;;16.00;9.02;;;;;;;;;;5012739;28;20063;-80
2022/11/25 06:28:03;;;;;;;21.40;13.35;;;;;;;;;;5013901;28;20070;-78
2022/11/25 06:30:30;;;;;;;16.65;10.80;;;;;;;;;;5003037;28;20060;-79
2022/11/25 06:33:33;;;;;;;20.13;9.80;;;;;;;;;;5004136;28;20397;-79
2022/11/25 06:36:08;;;;;;;22.98;12.50;;;;;;;;;;5000460;28;20038;-78
2022/11/25 06:38:35;;;;;;;14.38;7.97;;;;;;;;;;5020497;28;20099;-78
2022/11/25 06:41:02;;;;;;;19.45;8.43;;;;;;;;;;5007537;28;20142;-79
2022/11/25 06:43:29;;;;;;;15.50;8.93;;;;;;;;;;5042222;28;20032;-79
2022/11/25 06:46:05;;;;;;;15.13;10.02;;;;;;;;;;5041625;28;20531;-83
2022/11/25 06:48:42;;;;;;;6.70;5.63;;;;;;;;;;5058461;28;20039;-79
2022/11/25 06:51:12;;;;;;;18.15;9.73;;;;;;;;;;5053905;28;20043;-79
2022/11/25 06:53:38;;;;;;;20.65;14.13;;;;;;;;;;5032818;28;20056;-79
2022/11/25 06:56:06;;;;;;;11.82;8.25;;;;;;;;;;5056165;28;20113;-79
2022/11/25 06:58:32;;;;;;;8.18;5.97;;;;;;;;;;5036528;28;20500;-80
2022/11/25 07:01:18;;;;;;;15.00;7.05;;;;;;;;;;5036589;28;20036;-79
2022/11/25 07:03:52;;;;;;;13.35;7.57;;;;;;;;;;5039302;28;20033;-81
2022/11/25 07:06:18;;;;;;;14.55;7.90;;;;;;;;;;5037409;28;20111;-79
2022/11/25 07:08:47;;;;;;;23.23;13.07;;;;;;;;;;5021155;28;20033;-80
2022/11/25 07:11:15;;;;;;;20.55;9.18;;;;;;;;;;5020897;28;20177;-80
2022/11/25 07:13:41;;;;;;;12.32;7.05;;;;;;;;;;5020376;28;20056;-79
2022/11/25 07:16:07;;;;;;;14.95;10.00;;;;;;;;;;5020426;28;20032;-80
2022/11/25 07:18:37;;;;;;;14.38;7.90;;;;;;;;;;5019988;28;20252;-79
2022/11/25 07:21:04;;;;;;;16.33;9.85;;;;;;;;;;5052887;28;20556;-79
2022/11/25 07:23:30;;;;;;;10.57;6.60;;;;;;;;;;5050551;28;20421;-80
2022/11/25 07:26:00;;;;;;;24.00;13.45;;;;;;;;;;5074945;28;20031;-79
2022/11/25 07:28:26;;;;;;;13.18;7.97;;;;;;;;;;5041735;28;20560;-80
2022/11/25 07:30:53;;;;;;;15.82;9.73;;;;;;;;;;5039823;28;20043;-78
2022/11/25 07:33:19;;;;;;;16.35;9.65;;;;;;;;;;5024989;28;20052;-80
2022/11/25 07:35:45;;;;;;;13.68;6.40;;;;;;;;;;5040961;28;20036;-79
2022/11/25 07:38:11;;;;;;;20.75;9.00;;;;;;;;;;5025177;28;20025;-78
2022/11/25 07:40:37;;;;;;;15.88;9.52;;;;;;;;;;5024560;28;20401;-78
2022/11/25 07:43:03;;;;;;;14.20;8.35;;;;;;;;;;5057699;28;20062;-78
2022/11/25 07:45:37;;;;;;;23.48;12.45;;;;;;;;;;5056673;28;20527;-79
2022/11/25 07:48:07;;;;;;;14.63;7.82;;;;;;;;;;5042433;28;20035;-79
2022/11/25 07:50:34;;;;;;;20.52;9.93;;;;;;;;;;5041608;28;20054;-80
2022/11/25 07:53:00;;;;;;;13.60;9.60;;;;;;;;;;5040697;28;20032;-81
2022/11/25 07:55:26;;;;;;;11.40;7.70;;;;;;;;;;5023116;28;20055;-79
2022/11/25 07:57:53;;;;;;;22.13;13.93;;;;;;;;;;5052260;28;20492;-79
2022/11/25 08:00:21;;;;;;;19.58;10.63;;;;;;;;;;5052187;28;20048;-79
2022/11/25 08:02:48;;;;;;;11.63;7.30;;;;;;;;;;5040761;28;20028;-80
2022/11/25 08:05:14;;;;;;;14.15;9.00;;;;;;;;;;5024378;28;20047;-79
2022/11/25 08:07:40;;;;;;;17.13;10.10;;;;;;;;;;5024314;28;20126;-79
2022/11/25 08:10:06;;;;;;;14.60;10.23;;;;;;;;;;5040396;28;20170;-78
2022/11/25 08:12:33;;;;;;;18.77;9.55;;;;;;;;;;5040333;28;20031;-80
2022/11/25 08:14:59;;;;;;;8.70;5.97;;;;;;;;;;5054352;28;20032;-79
2022/11/25 08:17:26;;;;;;;14.05;9.02;;;;;;;;;;5092248;28;20059;-79
2022/11/25 08:19:52;;;;;;;14.45;9.13;;;;;;;;;;5045395;28;20059;-79
2022/11/25 08:22:19;;;;;;;18.67;9.40;;;;;;;;;;5023889;28;20032;-79
2022/11/25 08:24:45;;;;;;;10.65;7.30;;;;;;;;;;5023540;28;20024;-78
2022/11/25 08:27:11;;;;;;;8.60;6.90;;;;;;;;;;5023891;28;20034;-79
2022/11/25 08:29:37;;;;;;;13.57;6.72;;;;;;;;;;5024976;28;20096;-78
2022/11/25 08:32:06;;;;;;;5.60;4.90;;;;;;;;;;5024472;28;20028;-79
2022/11/25 08:34:32;;;;;;;19.20;9.02;;;;;;;;;;5040965;28;20042;-79
2022/11/25 08:37:01;;;;;;;11.98;8.77;;;;;;;;;;5057782;28;20078;-78
2022/11/25 08:39:28;;;;;;;18.73;11.43;;;;;;;;;;5036208;28;20056;-78
2022/11/25 08:41:54;;;;;;;14.05;8.75;;;;;;;;;;5036933;28;20056;-78
2022/11/25 08:44:20;;;;;;;11.43;8.10;;;;;;;;;;5037924;28;20155;-78
2022/11/25 08:46:48;;;;;;;13.38;7.55;;;;;;;;;;5021712;28;20038;-79
2022/11/25 08:49:16;;;;;;;13.45;8.73;;;;;;;;;;5021934;28;20033;-78
2022/11/25 08:51:42;;;;;;;14.63;7.53;;;;;;;;;;5015733;28;20045;-79
2022/11/25 08:54:08;;;;;;;12.95;7.78;;;;;;;;;;5024655;28;20025;-79
2022/11/25 08:56:42;;;;;;;9.25;7.50;;;;;;;;;;5027284;28;20037;-79
2022/11/25 08:59:08;;;;;;;17.00;9.55;;;;;;;;;;5006325;28;20106;-79
2022/11/25 09:01:36;;;;;;;11.98;8.32;;;;;;;;;;5003675;28;20033;-77
2022/11/25 09:04:03;;;;;;;9.57;7.10;;;;;;;;;;5015397;28;20045;-78
2022/11/25 09:06:31;;;;;;;12.23;6.82;;;;;;;;;;5031337;28;20102;-78
2022/11/25 09:09:25;;;;;;;8.98;6.45;;;;;;;;;;5033105;28;20047;-78
2022/11/25 09:12:40;;;;;;;15.10;7.65;;;;;;;;;;5048520;28;20040;-79
2022/11/25 09:15:06;;;;;;;17.58;10.75;;;;;;;;;;4999533;28;20033;-79
2022/11/25 09:17:36;;;;;;;9.18;7.57;;;;;;;;;;5050131;28;20037;-79
2022/11/25 09:20:06;;;;;;;5.18;3.88;;;;;;;;;;5032413;28;20131;-78
2022/11/25 09:22:32;;;;;;;14.77;8.60;;;;;;;;;;5021566;28;20043;-78
2022/11/25 09:24:59;;;;;;;13.90;8.70;;;;;;;;;;5035437;28;20051;-77
2022/11/25 09:28:08;;;;;;;7.88;6.13;;;;;;;;;;5070083;28;20036;-78
2022/11/25 09:30:35;;;;;;;7.70;6.68;;;;;;;;;;5035151;28;20032;-78
2022/11/25 09:33:07;;;;;;;10.88;6.60;;;;;;;;;;5013095;28;20033;-78
2022/11/25 09:35:39;;;;;;;11.70;8.18;;;;;;;;;;5033450;28;20519;-79
2022/11/25 09:38:06;;;;;;;12.35;9.40;;;;;;;;;;5013518;28;20025;-82
2022/11/25 09:40:33;;;;;;;11.05;9.63;;;;;;;;;;5018600;28;20063;-80
2022/11/25 09:48:59;;;;;;;8.07;5.03;;;;;;;;;;5050559;28;20045;-78
2022/11/25 09:51:36;;;;;;;7.78;5.65;;;;;;;;;;5028015;28;20102;-78
2022/11/25 09:54:07;;;;;;;5.70;5.13;;;;;;;;;;5012484;28;20033;-78
2022/11/25 09:56:43;;;;;;;13.05;7.85;;;;;;;;;;5030958;28;20038;-76
2022/11/25 09:59:35;;;;;;;6.03;5.25;;;;;;;;;;5030328;28;20049;-76
2022/11/25 10:02:12;;;;;;;9.00;6.00;;;;;;;;;;5031120;28;20071;-74
2022/11/25 10:04:49;;;;;;;8.30;5.28;;;;;;;;;;4986536;28;20033;-73
2022/11/25 10:07:23;;;;;;;4.75;4.22;;;;;;;;;;5011162;28;20083;-74
2022/11/25 10:09:52;;;;;;;5.38;4.88;;;;;;;;;;5029250;28;20029;-77
2022/11/25 10:12:32;;;;;;;6.25;5.65;;;;;;;;;;5052377;28;20516;-78
2022/11/25 10:15:07;;;;;;;3.92;3.55;;;;;;;;;;5020438;28;20858;-77
2022/11/25 10:17:59;;;;;;;12.93;8.82;;;;;;;;;;5017789;28;20049;-79
2022/11/25 10:20:26;;;;;;;11.93;8.90;;;;;;;;;;5037886;28;20045;-80
2022/11/25 10:23:31;;;;;;;7.35;5.47;;;;;;;;;;5051592;28;20041;-79
2022/11/25 10:26:00;;;;;;;7.00;5.82;;;;;;;;;;5031425;28;20037;-79
2022/11/25 10:28:31;;;;;;;11.65;8.38;;;;;;;;;;4985004;28;20037;-79
2022/11/25 10:31:06;;;;;;;6.40;5.32;;;;;;;;;;5002435;28;20051;-79
2022/11/25 10:33:36;;;;;;;7.35;5.85;;;;;;;;;;5018512;28;20057;-82
2022/11/25 10:36:17;;;;;;;11.15;7.65;;;;;;;;;;5007641;28;20118;-79
2022/11/25 10:38:50;;;;;;;9.02;5.00;;;;;;;;;;5029357;28;20033;-83
2022/11/25 10:41:17;;;;;;;7.55;5.32;;;;;;;;;;5044464;28;20141;-82
2022/11/25 10:43:50;;;;;;;6.70;5.95;;;;;;;;;;5009104;28;20604;-82
2022/11/25 10:46:24;;;;;;;8.90;5.70;;;;;;;;;;5007236;28;20132;-82
2022/11/25 10:49:00;;;;;;;11.90;5.78;;;;;;;;;;5053211;28;20151;-80
2022/11/25 10:51:51;;;;;;;12.10;7.03;;;;;;;;;;5057667;28;20033;-81
2022/11/25 10:54:18;;;;;;;6.00;4.22;;;;;;;;;;5038517;28;20040;-80
2022/11/25 10:56:52;;;;;;;6.10;3.72;;;;;;;;;;5001987;28;20139;-81
2022/11/25 10:59:24;;;;;;;6.25;4.60;;;;;;;;;;5052969;28;20036;-81
2022/11/25 11:02:09;;;;;;;5.13;4.65;;;;;;;;;;5037304;28;20086;-81
2022/11/25 11:04:47;;;;;;;5.88;4.93;;;;;;;;;;5019036;28;20033;-80
2022/11/25 11:07:20;;;;;;;4.78;4.38;;;;;;;;;;5019124;28;20037;-79
2022/11/25 11:09:48;;;;;;;7.03;5.43;;;;;;;;;;5019660;28;20439;-80
2022/11/25 11:12:19;;;;;;;6.20;4.85;;;;;;;;;;4999470;28;20091;-81
2022/11/25 11:14:49;;;;;;;3.72;3.42;;;;;;;;;;5039331;28;20033;-80
2022/11/25 11:17:37;;;;;;;6.50;4.43;;;;;;;;;;5023180;28;20025;-81
2022/11/25 11:20:07;;;;;;;4.40;3.92;;;;;;;;;;5048889;28;20539;-77
2022/11/25 11:22:57;;;;;;;6.65;4.47;;;;;;;;;;5030125;28;20143;-77
2022/11/25 11:25:25;;;;;;;5.32;4.50;;;;;;;;;;4997624;28;20045;-77
2022/11/25 11:27:55;;;;;;;4.25;3.85;;;;;;;;;;5013945;28;20060;-77
2022/11/25 11:30:23;;;;;;;10.23;7.05;;;;;;;;;;5013808;28;20083;-78
2022/11/25 11:33:00;;;;;;;4.65;4.03;;;;;;;;;;5012863;28;20451;-77
2022/11/25 11:35:44;;;;;;;7.40;5.57;;;;;;;;;;5000421;28;20071;-77
2022/11/25 11:38:25;;;;;;;7.03;5.38;;;;;;;;;;5029611;28;20033;-78
2022/11/25 11:40:53;;;;;;;9.50;6.68;;;;;;;;;;5044073;28;20057;-78
2022/11/25 11:43:40;;;;;;;4.07;3.78;;;;;;;;;;5012328;28;20388;-77
2022/11/25 11:46:12;;;;;;;7.18;5.25;;;;;;;;;;5039548;28;20045;-77
2022/11/25 11:49:02;;;;;;;4.65;4.25;;;;;;;;;;5050094;28;20041;-78
2022/11/25 11:51:54;;;;;;;5.47;4.95;;;;;;;;;;5043480;28;20047;-77
2022/11/25 11:54:32;;;;;;;4.75;4.30;;;;;;;;;;5025423;28;20513;-78
2022/11/25 11:57:05;;;;;;;7.68;5.57;;;;;;;;;;5033023;28;20025;-78
2022/11/25 11:59:50;;;;;;;6.78;5.07;;;;;;;;;;5050197;28;20151;-78
2022/11/25 12:02:32;;;;;;;7.93;6.10;;;;;;;;;;5033443;28;20047;-78
2022/11/25 12:05:15;;;;;;;6.75;4.90;;;;;;;;;;5049818;28;20517;-77
2022/11/25 12:07:54;;;;;;;9.15;6.40;;;;;;;;;;5050261;28;20048;-77
2022/11/25 12:10:29;;;;;;;7.30;6.45;;;;;;;;;;5033875;28;20032;-78
2022/11/25 12:13:04;;;;;;;8.40;5.68;;;;;;;;;;5049721;28;20630;-78
2022/11/25 12:15:48;;;;;;;7.28;4.90;;;;;;;;;;5016704;28;20516;-77
2022/11/25 12:18:31;;;;;;;9.43;7.90;;;;;;;;;;5032494;28;20049;-78
2022/11/25 12:21:20;;;;;;;6.70;5.18;;;;;;;;;;5040472;28;20055;-78
2022/11/25 12:23:50;;;;;;;9.93;6.40;;;;;;;;;;5065799;28;20488;-77
2022/11/25 12:26:41;;;;;;;4.45;4.15;;;;;;;;;;5069330;28;20569;-78
2022/11/25 12:29:31;;;;;;;8.30;4.88;;;;;;;;;;5036698;28;20040;-78
2022/11/25 12:32:02;;;;;;;8.13;7.13;;;;;;;;;;5010392;28;20142;-77
2022/11/25 12:34:43;;;;;;;5.15;4.45;;;;;;;;;;5026886;28;20047;-77
2022/11/25 12:37:19;;;;;;;6.45;5.43;;;;;;;;;;5016807;28;20556;-77
2022/11/25 12:39:54;;;;;;;6.53;4.75;;;;;;;;;;5033438;28;20122;-78
2022/11/25 12:42:26;;;;;;;3.95;3.55;;;;;;;;;;5014863;28;20060;-78
2022/11/25 12:45:04;;;;;;;7.40;4.65;;;;;;;;;;5033134;28;20040;-77
2022/11/25 12:47:31;;;;;;;7.95;7.15;;;;;;;;;;5033722;28;20029;-78
2022/11/25 12:50:00;;;;;;;10.07;5.70;;;;;;;;;;4998358;28;20040;-78
2022/11/25 12:52:28;;;;;;;7.53;6.82;;;;;;;;;;5017223;28;20035;-77
2022/11/25 12:55:08;;;;;;;12.13;7.68;;;;;;;;;;5034042;28;20410;-77
2022/11/25 12:57:48;;;;;;;6.88;5.72;;;;;;;;;;5000746;28;20048;-78
2022/11/25 13:00:31;;;;;;;7.65;4.95;;;;;;;;;;5035954;28;20048;-78
2022/11/25 13:03:13;;;;;;;4.43;3.70;;;;;;;;;;5000196;28;20025;-77
2022/11/25 13:05:48;;;;;;;7.78;4.85;;;;;;;;;;5036955;28;20581;-78
2022/11/25 13:08:18;;;;;;;8.43;6.55;;;;;;;;;;5035980;28;20035;-77
2022/11/25 13:10:47;;;;;;;4.70;4.30;;;;;;;;;;5036531;28;20040;-77
2022/11/25 13:13:37;;;;;;;5.13;4.65;;;;;;;;;;5035873;28;20094;-78
2022/11/25 13:16:13;;;;;;;5.30;4.80;;;;;;;;;;5033881;28;20048;-77
2022/11/25 13:19:07;;;;;;;4.95;4.43;;;;;;;;;;5042731;28;20084;-78
2022/11/25 13:22:01;;;;;;;6.93;5.70;;;;;;;;;;5041853;28;20043;-77
2022/11/25 13:24:37;;;;;;;3.35;3.15;;;;;;;;;;5036790;28;20122;-77
2022/11/25 13:27:16;;;;;;;4.90;4.38;;;;;;;;;;5036348;28;20063;-77
2022/11/25 13:30:36;;;;;;;7.35;6.28;;;;;;;;;;5067966;28;20408;-78
2022/11/25 13:33:09;;;;;;;5.97;5.13;;;;;;;;;;5040312;28;20161;-78
2022/11/25 13:35:42;;;;;;;5.18;4.68;;;;;;;;;;5031709;28;20025;-78
2022/11/25 13:38:31;;;;;;;4.93;4.53;;;;;;;;;;5031782;28;20045;-78
2022/11/25 13:41:31;;;;;;;5.70;4.72;;;;;;;;;;5033886;28;20149;-77
2022/11/25 13:43:58;;;;;;;5.32;4.82;;;;;;;;;;5030695;28;20131;-77
2022/11/25 13:46:27;;;;;;;5.47;4.95;;;;;;;;;;5031241;28;20064;-79
2022/11/25 13:48:53;;;;;;;4.10;3.70;;;;;;;;;;5053277;28;20036;-79
2022/11/25 13:51:20;;;;;;;4.75;4.30;;;;;;;;;;5030336;28;20039;-79
2022/11/25 13:53:56;;;;;;;8.30;5.82;;;;;;;;;;5020869;28;20520;-79
2022/11/25 13:56:31;;;;;;;5.45;4.93;;;;;;;;;;5036830;28;20044;-79
2022/11/25 13:59:12;;;;;;;4.10;3.70;;;;;;;;;;5030575;28;20040;-76
2022/11/25 14:02:02;;;;;;;5.93;3.65;;;;;;;;;;5033541;28;20043;-79
2022/11/25 14:04:44;;;;;;;8.40;7.53;;;;;;;;;;5049585;28;20131;-80
2022/11/25 14:07:30;;;;;;;10.52;6.32;;;;;;;;;;5013909;28;20151;-80
2022/11/25 14:13:26;;;;;;;6.30;5.07;;;;;;;;;;5061008;28;20041;-78
2022/11/25 14:15:59;;;;;;;8.15;5.30;;;;;;;;;;5038077;28;20051;-79
2022/11/25 14:18:28;;;;;;;6.68;5.97;;;;;;;;;;5029100;28;20032;-78
2022/11/25 14:21:13;;;;;;;8.13;5.18;;;;;;;;;;5032386;28;20106;-78
2022/11/25 14:23:49;;;;;;;6.28;4.95;;;;;;;;;;5026508;28;20154;-78
2022/11/25 14:26:21;;;;;;;8.85;8.05;;;;;;;;;;5033063;28;20412;-77
2022/11/25 14:28:53;;;;;;;6.75;4.15;;;;;;;;;;5031999;28;20158;-79
2022/11/25 14:31:43;;;;;;;8.15;6.68;;;;;;;;;;5034844;28;20045;-77
2022/11/25 14:34:16;;;;;;;6.72;6.03;;;;;;;;;;5031580;28;20064;-76
2022/11/25 14:36:44;;;;;;;;;;;;;;;;;;5030431;28;20501;-79
2022/11/25 14:39:21;;;;;;;6.60;4.88;;;;;;;;;;5045290;28;19916;-76
2022/11/25 14:42:09;;;;;;;7.32;5.43;;;;;;;;;;5065545;28;20048;-79
2022/11/25 14:44:51;;;;;;;4.68;4.20;;;;;;;;;;5048958;28;20500;-78
2022/11/25 14:47:21;;;;;;;6.55;5.93;;;;;;;;;;5031966;28;20522;-78
2022/11/25 14:49:51;;;;;;;6.18;5.57;;;;;;;;;;5033499;28;20140;-78
2022/11/25 14:52:22;;;;;;;5.28;4.78;;;;;;;;;;5033890;28;20420;-79
2022/11/25 14:55:08;;;;;;;6.72;6.13;;;;;;;;;;5051207;28;20024;-79
2022/11/25 14:57:36;;;;;;;8.75;7.90;;;;;;;;;;5052632;28;20059;-78
2022/11/25 15:00:08;;;;;;;7.10;5.72;;;;;;;;;;5034070;28;20054;-78
2022/11/25 15:02:35;;;;;;;5.95;5.07;;;;;;;;;;5052678;28;20132;-80
2022/11/25 15:05:07;;;;;;;6.53;6.03;;;;;;;;;;5053564;28;20044;-78
2022/11/25 15:07:33;;;;;;;6.78;5.18;;;;;;;;;;5052982;28;20048;-78
2022/11/25 15:10:05;;;;;;;8.70;7.40;;;;;;;;;;5068306;28;20125;-77
2022/11/25 15:12:34;;;;;;;8.20;6.95;;;;;;;;;;5069646;28;20036;-78
2022/11/25 15:15:00;;;;;;;5.15;4.65;;;;;;;;;;5052800;28;20047;-78
2022/11/25 15:17:28;;;;;;;5.88;5.45;;;;;;;;;;5053068;28;20043;-78
2022/11/25 15:19:59;;;;;;;8.48;7.53;;;;;;;;;;5035972;28;20048;-77
2022/11/25 15:22:36;;;;;;;7.85;7.15;;;;;;;;;;5068747;28;20110;-77
2022/11/25 15:25:11;;;;;;;7.82;7.05;;;;;;;;;;5031119;28;20068;-77
2022/11/25 15:27:42;;;;;;;5.75;4.72;;;;;;;;;;5011005;28;20028;-81
2022/11/25 15:30:34;;;;;;;6.47;5.88;;;;;;;;;;5038114;28;20039;-77
2022/11/25 15:33:02;;;;;;;;;;;;;;;;;;5053475;28;20044;-75